createdAt,value
2023-05-09T00:00:20.978Z,568.00
2023-05-09T00:00:51.075Z,568.00
2023-05-09T00:01:21.157Z,571.00
2023-05-09T00:01:51.291Z,571.00
2023-05-09T00:02:21.299Z,569.00
2023-05-09T00:02:51.357Z,569.00
2023-05-09T00:03:21.411Z,568.00
2023-05-09T00:03:51.500Z,568.00
2023-05-09T00:04:21.467Z,568.00
2023-05-09T00:04:51.510Z,567.00
2023-05-09T00:05:21.498Z,566.00
2023-05-09T00:05:51.594Z,566.00
2023-05-09T00:06:21.677Z,568.00
2023-05-09T00:06:51.748Z,571.00
2023-05-09T00:07:21.850Z,572.00
2023-05-09T00:07:51.933Z,572.00
2023-05-09T00:08:22.016Z,573.00
2023-05-09T00:08:52.099Z,572.00
2023-05-09T00:09:22.197Z,571.00
2023-05-09T00:09:52.293Z,569.00
2023-05-09T00:10:22.517Z,569.00
2023-05-09T00:10:52.473Z,569.00
2023-05-09T00:11:22.545Z,569.00
2023-05-09T00:11:52.579Z,570.00
2023-05-09T00:12:22.657Z,570.00
2023-05-09T00:12:52.688Z,568.00
2023-05-09T00:13:22.877Z,569.00
2023-05-09T00:13:52.790Z,570.00
2023-05-09T00:14:22.841Z,571.00
2023-05-09T00:14:52.886Z,570.00
2023-05-09T00:15:22.925Z,571.00
2023-05-09T00:15:52.974Z,571.00
2023-05-09T00:16:23.058Z,570.00
2023-05-09T00:16:53.220Z,570.00
2023-05-09T00:17:23.218Z,570.00
2023-05-09T00:17:53.301Z,571.00
2023-05-09T00:18:23.355Z,572.00
2023-05-09T00:18:53.415Z,571.00
2023-05-09T00:19:23.456Z,571.00
2023-05-09T00:19:53.502Z,571.00
2023-05-09T00:20:23.547Z,573.00
2023-05-09T00:20:53.604Z,573.00
2023-05-09T00:21:23.654Z,573.00
2023-05-09T00:21:53.729Z,573.00
2023-05-09T00:22:23.849Z,572.00
2023-05-09T00:22:53.910Z,571.00
2023-05-09T00:23:24.019Z,571.00
2023-05-09T00:23:54.106Z,571.00
2023-05-09T00:24:24.191Z,573.00
2023-05-09T00:24:54.285Z,574.00
2023-05-09T00:25:24.373Z,574.00
2023-05-09T00:25:54.642Z,575.00
2023-05-09T00:26:24.585Z,575.00
2023-05-09T00:26:54.680Z,576.00
2023-05-09T00:27:24.779Z,577.00
2023-05-09T00:27:54.848Z,576.00
2023-05-09T00:28:24.928Z,577.00
2023-05-09T00:28:55.022Z,576.00
2023-05-09T00:29:25.125Z,574.00
2023-05-09T00:29:55.196Z,573.00
2023-05-09T00:30:25.277Z,572.00
2023-05-09T00:30:55.375Z,571.00
2023-05-09T00:31:25.480Z,571.00
2023-05-09T00:31:55.549Z,570.00
2023-05-09T00:32:25.683Z,569.00
2023-05-09T00:32:55.809Z,569.00
2023-05-09T00:33:25.708Z,571.00
2023-05-09T00:33:55.794Z,570.00
2023-05-09T00:34:25.876Z,571.00
2023-05-09T00:34:55.949Z,570.00
2023-05-09T00:35:26.041Z,569.00
2023-05-09T00:35:56.128Z,569.00
2023-05-09T00:36:26.214Z,571.00
2023-05-09T00:36:56.291Z,570.00
2023-05-09T00:37:26.393Z,570.00
2023-05-09T00:37:56.480Z,568.00
2023-05-09T00:38:26.587Z,567.00
2023-05-09T00:38:56.647Z,568.00
2023-05-09T00:39:26.731Z,567.00
2023-05-09T00:39:56.809Z,566.00
2023-05-09T00:40:26.902Z,566.00
2023-05-09T00:40:57.109Z,567.00
2023-05-09T00:41:27.056Z,567.00
2023-05-09T00:41:57.144Z,568.00
2023-05-09T00:42:27.458Z,568.00
2023-05-09T00:42:57.318Z,567.00
2023-05-09T00:43:57.453Z,566.00
2023-05-09T00:44:27.538Z,565.00
2023-05-09T00:44:57.628Z,564.00
2023-05-09T00:45:27.707Z,565.00
2023-05-09T00:45:57.835Z,566.00
2023-05-09T00:46:27.929Z,565.00
2023-05-09T00:46:58.025Z,567.00
2023-05-09T00:47:28.110Z,567.00
2023-05-09T00:47:58.130Z,567.00
2023-05-09T00:48:28.129Z,566.00
2023-05-09T00:48:58.212Z,565.00
2023-05-09T00:49:28.288Z,564.00
2023-05-09T00:49:58.428Z,564.00
2023-05-09T00:50:28.384Z,565.00
2023-05-09T00:50:58.467Z,565.00
2023-05-09T00:51:28.565Z,565.00
2023-05-09T00:51:58.665Z,563.00
2023-05-09T00:52:28.742Z,562.00
2023-05-09T00:52:58.860Z,565.00
2023-05-09T00:53:28.930Z,561.00
2023-05-09T00:53:59.019Z,561.00
2023-05-09T00:54:29.092Z,561.00
2023-05-09T00:54:59.192Z,561.00
2023-05-09T00:55:29.271Z,561.00
2023-05-09T00:55:59.494Z,560.00
2023-05-09T00:56:29.438Z,562.00
2023-05-09T00:56:59.523Z,562.00
2023-05-09T00:57:29.606Z,564.00
2023-05-09T00:57:59.708Z,565.00
2023-05-09T00:58:29.782Z,565.00
2023-05-09T00:58:59.866Z,565.00
2023-05-09T00:59:29.956Z,564.00
2023-05-09T01:00:00.046Z,564.00
2023-05-09T01:00:30.122Z,565.00
2023-05-09T01:01:00.263Z,564.00
2023-05-09T01:01:30.252Z,565.00
2023-05-09T01:02:00.257Z,566.00
2023-05-09T01:02:30.427Z,565.00
2023-05-09T01:03:00.500Z,565.00
2023-05-09T01:03:30.598Z,563.00
2023-05-09T01:04:00.593Z,564.00
2023-05-09T01:04:30.677Z,564.00
2023-05-09T01:05:00.769Z,565.00
2023-05-09T01:05:30.908Z,564.00
2023-05-09T01:06:00.879Z,564.00
2023-05-09T01:06:30.989Z,563.00
2023-05-09T01:07:01.054Z,560.00
2023-05-09T01:07:31.149Z,559.00
2023-05-09T01:08:01.231Z,559.00
2023-05-09T01:08:31.328Z,560.00
2023-05-09T01:09:01.405Z,561.00
2023-05-09T01:09:31.484Z,560.00
2023-05-09T01:10:01.584Z,560.00
2023-05-09T01:10:31.678Z,562.00
2023-05-09T01:11:01.889Z,563.00
2023-05-09T01:11:31.801Z,562.00
2023-05-09T01:12:31.848Z,563.00
2023-05-09T01:13:01.996Z,564.00
2023-05-09T01:13:31.963Z,564.00
2023-05-09T01:14:01.991Z,564.00
2023-05-09T01:14:32.036Z,563.00
2023-05-09T01:15:02.111Z,564.00
2023-05-09T01:15:32.153Z,564.00
2023-05-09T01:16:02.214Z,562.00
2023-05-09T01:16:32.252Z,562.00
2023-05-09T01:17:02.290Z,562.00
2023-05-09T01:17:32.381Z,562.00
2023-05-09T01:18:02.443Z,562.00
2023-05-09T01:18:32.485Z,561.00
2023-05-09T01:19:02.549Z,559.00
2023-05-09T01:19:32.600Z,558.00
2023-05-09T01:20:02.644Z,557.00
2023-05-09T01:20:32.688Z,557.00
2023-05-09T01:21:02.723Z,557.00
2023-05-09T01:21:32.807Z,558.00
2023-05-09T01:22:02.926Z,559.00
2023-05-09T01:22:32.918Z,558.00
2023-05-09T01:23:03.001Z,559.00
2023-05-09T01:23:33.091Z,559.00
2023-05-09T01:24:03.184Z,560.00
2023-05-09T01:24:33.310Z,560.00
2023-05-09T01:25:03.281Z,561.00
2023-05-09T01:25:33.365Z,561.00
2023-05-09T01:26:03.565Z,559.00
2023-05-09T01:26:33.530Z,557.00
2023-05-09T01:27:33.560Z,558.00
2023-05-09T01:28:03.640Z,558.00
2023-05-09T01:28:33.729Z,558.00
2023-05-09T01:29:03.835Z,559.00
2023-05-09T01:29:33.918Z,558.00
2023-05-09T01:30:04.015Z,556.00
2023-05-09T01:30:34.094Z,556.00
2023-05-09T01:31:04.203Z,555.00
2023-05-09T01:31:34.297Z,554.00
2023-05-09T01:32:04.377Z,554.00
2023-05-09T01:32:34.503Z,555.00
2023-05-09T01:33:04.556Z,557.00
2023-05-09T01:33:34.541Z,557.00
2023-05-09T01:34:04.617Z,558.00
2023-05-09T01:34:34.720Z,559.00
2023-05-09T01:35:04.822Z,560.00
2023-05-09T01:35:34.924Z,560.00
2023-05-09T01:36:05.016Z,559.00
2023-05-09T01:36:35.092Z,559.00
2023-05-09T01:37:05.187Z,559.00
2023-05-09T01:37:35.275Z,560.00
2023-05-09T01:38:05.360Z,561.00
2023-05-09T01:38:35.439Z,561.00
2023-05-09T01:39:05.586Z,562.00
2023-05-09T01:39:35.644Z,562.00
2023-05-09T01:40:05.712Z,561.00
2023-05-09T01:40:35.806Z,563.00
2023-05-09T01:41:06.037Z,563.00
2023-05-09T01:41:35.979Z,564.00
2023-05-09T01:42:06.083Z,563.00
2023-05-09T01:42:36.165Z,562.00
2023-05-09T01:43:06.295Z,561.00
2023-05-09T01:43:36.376Z,561.00
2023-05-09T01:44:06.388Z,562.00
2023-05-09T01:44:36.354Z,560.00
2023-05-09T01:45:06.468Z,559.00
2023-05-09T01:45:36.450Z,560.00
2023-05-09T01:46:06.594Z,559.00
2023-05-09T01:46:36.621Z,557.00
2023-05-09T01:47:06.693Z,557.00
2023-05-09T01:47:36.829Z,556.00
2023-05-09T01:48:06.930Z,556.00
2023-05-09T01:48:36.905Z,558.00
2023-05-09T01:49:07.049Z,557.00
2023-05-09T01:49:37.043Z,557.00
2023-05-09T01:50:07.129Z,557.00
2023-05-09T01:50:37.215Z,558.00
2023-05-09T01:51:07.290Z,557.00
2023-05-09T01:51:37.292Z,557.00
2023-05-09T01:52:07.396Z,557.00
2023-05-09T01:52:37.495Z,558.00
2023-05-09T01:53:07.575Z,557.00
2023-05-09T01:53:37.654Z,557.00
2023-05-09T01:54:07.754Z,556.00
2023-05-09T01:54:37.829Z,556.00
2023-05-09T01:55:07.909Z,556.00
2023-05-09T01:55:37.994Z,557.00
2023-05-09T01:56:08.202Z,557.00
2023-05-09T01:56:38.154Z,556.00
2023-05-09T01:57:08.242Z,556.00
2023-05-09T01:57:38.311Z,555.00
2023-05-09T01:58:08.398Z,554.00
2023-05-09T01:58:38.490Z,553.00
2023-05-09T01:59:08.577Z,554.00
2023-05-09T01:59:38.661Z,553.00
2023-05-09T02:00:08.739Z,553.00
2023-05-09T02:00:38.876Z,554.00
2023-05-09T02:01:09.013Z,555.00
2023-05-09T02:01:38.962Z,554.00
2023-05-09T02:02:09.056Z,555.00
2023-05-09T02:02:39.242Z,556.00
2023-05-09T02:03:09.212Z,555.00
2023-05-09T02:03:39.181Z,555.00
2023-05-09T02:04:09.246Z,555.00
2023-05-09T02:04:39.332Z,555.00
2023-05-09T02:05:09.376Z,556.00
2023-05-09T02:05:39.473Z,558.00
2023-05-09T02:06:09.555Z,558.00
2023-05-09T02:06:39.655Z,555.00
2023-05-09T02:07:09.735Z,555.00
2023-05-09T02:07:39.821Z,555.00
2023-05-09T02:08:09.901Z,554.00
2023-05-09T02:08:39.980Z,551.00
2023-05-09T02:09:10.089Z,551.00
2023-05-09T02:09:40.180Z,551.00
2023-05-09T02:10:10.282Z,552.00
2023-05-09T02:10:40.369Z,551.00
2023-05-09T02:11:10.454Z,552.00
2023-05-09T02:11:40.665Z,552.00
2023-05-09T02:12:10.639Z,554.00
2023-05-09T02:12:40.780Z,555.00
2023-05-09T02:13:10.807Z,555.00
2023-05-09T02:13:40.765Z,555.00
2023-05-09T02:14:10.855Z,554.00
2023-05-09T02:14:40.956Z,555.00
2023-05-09T02:15:11.054Z,553.00
2023-05-09T02:15:41.131Z,553.00
2023-05-09T02:16:11.263Z,554.00
2023-05-09T02:16:41.257Z,554.00
2023-05-09T02:17:11.338Z,553.00
2023-05-09T02:17:41.456Z,554.00
2023-05-09T02:18:11.514Z,554.00
2023-05-09T02:18:41.637Z,553.00
2023-05-09T02:19:11.708Z,554.00
2023-05-09T02:19:41.808Z,555.00
2023-05-09T02:20:11.917Z,554.00
2023-05-09T02:20:41.890Z,554.00
2023-05-09T02:21:12.074Z,554.00
2023-05-09T02:21:42.011Z,555.00
2023-05-09T02:22:12.003Z,556.00
2023-05-09T02:22:42.032Z,556.00
2023-05-09T02:23:12.055Z,557.00
2023-05-09T02:23:42.045Z,555.00
2023-05-09T02:24:12.043Z,555.00
2023-05-09T02:24:42.057Z,555.00
2023-05-09T02:25:12.279Z,556.00
2023-05-09T02:25:42.070Z,556.00
2023-05-09T02:26:12.095Z,557.00
2023-05-09T02:26:42.244Z,557.00
2023-05-09T02:27:12.103Z,558.00
2023-05-09T02:28:12.209Z,557.00
2023-05-09T02:28:42.210Z,556.00
2023-05-09T02:29:12.236Z,555.00
2023-05-09T02:29:42.237Z,554.00
2023-05-09T02:30:12.257Z,554.00
2023-05-09T02:30:42.249Z,555.00
2023-05-09T02:31:12.250Z,555.00
2023-05-09T02:31:42.286Z,557.00
2023-05-09T02:32:12.407Z,558.00
2023-05-09T02:32:42.401Z,557.00
2023-05-09T02:33:12.431Z,556.00
2023-05-09T02:33:42.431Z,557.00
2023-05-09T02:34:12.442Z,558.00
2023-05-09T02:34:42.468Z,555.00
2023-05-09T02:35:12.620Z,555.00
2023-05-09T02:35:42.527Z,555.00
2023-05-09T02:36:12.525Z,555.00
2023-05-09T02:36:42.544Z,555.00
2023-05-09T02:37:12.545Z,553.00
2023-05-09T02:37:42.560Z,553.00
2023-05-09T02:38:12.585Z,552.00
2023-05-09T02:38:42.603Z,552.00
2023-05-09T02:39:12.620Z,552.00
2023-05-09T02:39:42.626Z,551.00
2023-05-09T02:40:12.639Z,551.00
2023-05-09T02:40:42.628Z,550.00
2023-05-09T02:41:12.632Z,549.00
2023-05-09T02:42:12.846Z,549.00
2023-05-09T02:42:42.842Z,550.00
2023-05-09T02:43:42.865Z,550.00
2023-05-09T02:44:12.856Z,551.00
2023-05-09T02:44:42.860Z,550.00
2023-05-09T02:45:13.160Z,550.00
2023-05-09T02:45:42.923Z,549.00
2023-05-09T02:46:12.962Z,550.00
2023-05-09T02:46:42.983Z,551.00
2023-05-09T02:47:12.997Z,549.00
2023-05-09T02:47:43.047Z,549.00
2023-05-09T02:48:13.171Z,550.00
2023-05-09T02:48:43.095Z,550.00
2023-05-09T02:49:22.801Z,551.00
2023-05-09T02:49:43.203Z,554.00
2023-05-09T02:50:13.208Z,553.00
2023-05-09T02:50:43.214Z,554.00
2023-05-09T02:51:13.328Z,555.00
2023-05-09T02:51:43.342Z,555.00
2023-05-09T02:52:13.353Z,555.00
2023-05-09T02:52:43.371Z,556.00
2023-05-09T02:53:13.392Z,555.00
2023-05-09T02:53:43.393Z,554.00
2023-05-09T02:54:13.399Z,553.00
2023-05-09T02:54:43.408Z,554.00
2023-05-09T02:55:13.665Z,555.00
2023-05-09T02:55:43.442Z,556.00
2023-05-09T02:56:13.458Z,557.00
2023-05-09T02:56:43.457Z,557.00
2023-05-09T02:57:13.487Z,556.00
2023-05-09T02:57:43.615Z,554.00
2023-05-09T02:58:15.006Z,553.00
2023-05-09T02:59:13.656Z,554.00
2023-05-09T02:59:43.664Z,554.00
2023-05-09T03:00:13.672Z,553.00
2023-05-09T03:00:43.698Z,554.00
2023-05-09T03:01:13.735Z,553.00
2023-05-09T03:01:43.768Z,553.00
2023-05-09T03:02:13.747Z,553.00
2023-05-09T03:02:43.914Z,552.00
2023-05-09T03:03:13.905Z,552.00
2023-05-09T03:03:44.169Z,552.00
2023-05-09T03:04:14.032Z,551.00
2023-05-09T03:04:44.149Z,551.00
2023-05-09T03:05:14.297Z,551.00
2023-05-09T03:05:44.176Z,550.00
2023-05-09T03:06:14.190Z,549.00
2023-05-09T03:06:44.194Z,549.00
2023-05-09T03:07:14.242Z,548.00
2023-05-09T03:07:44.251Z,548.00
2023-05-09T03:08:14.277Z,548.00
2023-05-09T03:08:44.270Z,547.00
2023-05-09T03:09:14.275Z,546.00
2023-05-09T03:09:44.287Z,547.00
2023-05-09T03:10:14.307Z,547.00
2023-05-09T03:10:44.331Z,547.00
2023-05-09T03:11:14.330Z,548.00
2023-05-09T03:11:44.429Z,549.00
2023-05-09T03:12:14.514Z,550.00
2023-05-09T03:12:44.622Z,550.00
2023-05-09T03:13:14.874Z,550.00
2023-05-09T03:13:44.752Z,550.00
2023-05-09T03:14:14.854Z,551.00
2023-05-09T03:14:44.922Z,550.00
2023-05-09T03:15:15.173Z,550.00
2023-05-09T03:15:45.092Z,549.00
2023-05-09T03:16:15.194Z,549.00
2023-05-09T03:16:45.162Z,550.00
2023-05-09T03:17:15.245Z,549.00
2023-05-09T03:17:45.405Z,550.00
2023-05-09T03:18:15.367Z,549.00
2023-05-09T03:18:45.481Z,550.00
2023-05-09T03:19:15.571Z,550.00
2023-05-09T03:19:45.685Z,551.00
2023-05-09T03:20:15.869Z,552.00
2023-05-09T03:20:45.832Z,551.00
2023-05-09T03:21:15.968Z,551.00
2023-05-09T03:21:45.978Z,552.00
2023-05-09T03:22:15.995Z,552.00
2023-05-09T03:22:45.997Z,551.00
2023-05-09T03:23:16.007Z,550.00
2023-05-09T03:23:46.014Z,549.00
2023-05-09T03:24:16.050Z,548.00
2023-05-09T03:24:46.033Z,550.00
2023-05-09T03:25:16.391Z,551.00
2023-05-09T03:25:46.216Z,551.00
2023-05-09T03:26:16.108Z,550.00
2023-05-09T03:27:16.211Z,548.00
2023-05-09T03:27:46.216Z,549.00
2023-05-09T03:28:16.232Z,550.00
2023-05-09T03:28:46.361Z,549.00
2023-05-09T03:29:16.349Z,550.00
2023-05-09T03:30:16.440Z,551.00
2023-05-09T03:30:46.446Z,552.00
2023-05-09T03:31:16.502Z,552.00
2023-05-09T03:31:46.605Z,552.00
2023-05-09T03:32:16.599Z,552.00
2023-05-09T03:32:46.641Z,550.00
2023-05-09T03:33:16.641Z,548.00
2023-05-09T03:33:46.656Z,550.00
2023-05-09T03:34:16.672Z,549.00
2023-05-09T03:34:46.677Z,552.00
2023-05-09T03:35:16.866Z,551.00
2023-05-09T03:35:46.757Z,549.00
2023-05-09T03:36:16.780Z,550.00
2023-05-09T03:36:46.785Z,551.00
2023-05-09T03:37:16.785Z,551.00
2023-05-09T03:37:46.799Z,553.00
2023-05-09T03:38:16.807Z,554.00
2023-05-09T03:38:46.805Z,555.00
2023-05-09T03:39:16.842Z,554.00
2023-05-09T03:39:46.821Z,552.00
2023-05-09T03:40:16.838Z,551.00
2023-05-09T03:40:46.833Z,549.00
2023-05-09T03:41:16.873Z,548.00
2023-05-09T03:41:46.864Z,549.00
2023-05-09T03:42:16.890Z,549.00
2023-05-09T03:42:46.886Z,547.00
2023-05-09T03:43:16.885Z,547.00
2023-05-09T03:43:46.903Z,546.00
2023-05-09T03:44:17.040Z,547.00
2023-05-09T03:44:47.014Z,545.00
2023-05-09T03:45:17.121Z,543.00
2023-05-09T03:45:47.041Z,545.00
2023-05-09T03:46:17.097Z,546.00
2023-05-09T03:46:47.184Z,547.00
2023-05-09T03:47:17.219Z,548.00
2023-05-09T03:47:47.287Z,549.00
2023-05-09T03:48:17.286Z,549.00
2023-05-09T03:48:47.303Z,547.00
2023-05-09T03:49:17.352Z,546.00
2023-05-09T03:49:47.367Z,546.00
2023-05-09T03:50:17.364Z,546.00
2023-05-09T03:50:47.395Z,546.00
2023-05-09T03:51:17.413Z,546.00
2023-05-09T03:51:47.432Z,547.00
2023-05-09T03:52:17.454Z,548.00
2023-05-09T03:52:47.454Z,549.00
2023-05-09T03:53:17.461Z,549.00
2023-05-09T03:53:47.476Z,548.00
2023-05-09T03:54:17.486Z,547.00
2023-05-09T03:54:47.500Z,546.00
2023-05-09T03:55:17.509Z,546.00
2023-05-09T03:55:47.523Z,548.00
2023-05-09T03:56:17.529Z,548.00
2023-05-09T03:56:47.537Z,550.00
2023-05-09T03:57:17.622Z,551.00
2023-05-09T03:57:47.622Z,552.00
2023-05-09T03:58:17.632Z,552.00
2023-05-09T03:58:47.666Z,553.00
2023-05-09T03:59:17.662Z,550.00
2023-05-09T03:59:47.788Z,549.00
2023-05-09T04:00:17.763Z,549.00
2023-05-09T04:00:47.887Z,546.00
2023-05-09T04:01:17.885Z,546.00
2023-05-09T04:01:47.939Z,545.00
2023-05-09T04:02:18.001Z,544.00
2023-05-09T04:02:48.040Z,544.00
2023-05-09T04:03:18.134Z,546.00
2023-05-09T04:03:48.185Z,545.00
2023-05-09T04:04:18.219Z,545.00
2023-05-09T04:04:48.221Z,545.00
2023-05-09T04:05:18.264Z,544.00
2023-05-09T04:05:48.264Z,544.00
2023-05-09T04:06:18.267Z,545.00
2023-05-09T04:06:48.281Z,545.00
2023-05-09T04:07:18.347Z,547.00
2023-05-09T04:07:48.364Z,548.00
2023-05-09T04:08:18.370Z,548.00
2023-05-09T04:08:48.369Z,548.00
2023-05-09T04:09:18.384Z,549.00
2023-05-09T04:09:48.383Z,549.00
2023-05-09T04:10:18.396Z,549.00
2023-05-09T04:10:48.400Z,548.00
2023-05-09T04:11:18.517Z,550.00
2023-05-09T04:11:48.610Z,552.00
2023-05-09T04:12:18.713Z,552.00
2023-05-09T04:12:48.855Z,553.00
2023-05-09T04:13:18.827Z,554.00
2023-05-09T04:13:48.901Z,554.00
2023-05-09T04:14:18.986Z,555.00
2023-05-09T04:14:49.261Z,555.00
2023-05-09T04:15:19.108Z,555.00
2023-05-09T04:16:19.296Z,558.00
2023-05-09T04:16:49.260Z,557.00
2023-05-09T04:17:19.262Z,558.00
2023-05-09T04:17:49.461Z,559.00
2023-05-09T04:18:19.340Z,559.00
2023-05-09T04:18:49.431Z,559.00
2023-05-09T04:19:19.552Z,559.00
2023-05-09T04:19:49.603Z,559.00
2023-05-09T04:20:19.679Z,560.00
2023-05-09T04:20:49.779Z,564.00
2023-05-09T04:21:19.779Z,566.00
2023-05-09T04:21:49.783Z,567.00
2023-05-09T04:22:19.782Z,565.00
2023-05-09T04:22:49.785Z,566.00
2023-05-09T04:23:19.795Z,568.00
2023-05-09T04:23:49.813Z,568.00
2023-05-09T04:24:19.820Z,568.00
2023-05-09T04:24:49.826Z,570.00
2023-05-09T04:25:19.830Z,573.00
2023-05-09T04:25:49.844Z,577.00
2023-05-09T04:26:19.870Z,579.00
2023-05-09T04:26:49.882Z,581.00
2023-05-09T04:27:19.886Z,580.00
2023-05-09T04:27:49.905Z,580.00
2023-05-09T04:28:19.917Z,580.00
2023-05-09T04:28:49.923Z,580.00
2023-05-09T04:29:19.930Z,581.00
2023-05-09T04:29:49.940Z,580.00
2023-05-09T04:30:20.076Z,579.00
2023-05-09T04:30:50.019Z,579.00
2023-05-09T04:31:50.220Z,581.00
2023-05-09T04:32:20.107Z,582.00
2023-05-09T04:32:50.144Z,582.00
2023-05-09T04:33:20.136Z,583.00
2023-05-09T04:33:50.142Z,583.00
2023-05-09T04:34:20.143Z,582.00
2023-05-09T04:34:50.146Z,586.00
2023-05-09T04:35:20.873Z,588.00
2023-05-09T04:35:50.254Z,591.00
2023-05-09T04:36:20.368Z,596.00
2023-05-09T04:36:50.375Z,600.00
2023-05-09T04:37:20.383Z,607.00
2023-05-09T04:37:50.400Z,655.00
2023-05-09T04:38:20.408Z,661.00
2023-05-09T04:38:50.407Z,663.00
2023-05-09T04:39:20.408Z,657.00
2023-05-09T04:39:50.423Z,653.00
2023-05-09T04:40:20.469Z,651.00
2023-05-09T04:40:50.478Z,656.00
2023-05-09T04:41:20.490Z,660.00
2023-05-09T04:41:50.498Z,666.00
2023-05-09T04:42:20.501Z,673.00
2023-05-09T04:42:50.526Z,714.00
2023-05-09T04:43:20.540Z,733.00
2023-05-09T04:43:50.541Z,728.00
2023-05-09T04:44:20.558Z,721.00
2023-05-09T04:44:50.588Z,716.00
2023-05-09T04:45:20.646Z,711.00
2023-05-09T04:45:50.791Z,706.00
2023-05-09T04:46:20.861Z,704.00
2023-05-09T04:46:50.763Z,701.00
2023-05-09T04:47:20.764Z,698.00
2023-05-09T04:47:50.790Z,697.00
2023-05-09T04:48:20.792Z,695.00
2023-05-09T04:48:50.797Z,692.00
2023-05-09T04:49:20.839Z,692.00
2023-05-09T04:49:50.841Z,694.00
2023-05-09T04:50:20.861Z,693.00
2023-05-09T04:50:50.887Z,696.00
2023-05-09T04:51:20.879Z,697.00
2023-05-09T04:51:50.889Z,697.00
2023-05-09T04:52:20.892Z,703.00
2023-05-09T04:52:50.902Z,705.00
2023-05-09T04:53:20.912Z,705.00
2023-05-09T04:53:50.925Z,705.00
2023-05-09T04:54:20.928Z,704.00
2023-05-09T04:54:50.935Z,707.00
2023-05-09T04:55:20.953Z,707.00
2023-05-09T04:55:50.958Z,709.00
2023-05-09T04:56:20.981Z,707.00
2023-05-09T04:56:51.001Z,708.00
2023-05-09T04:57:21.000Z,710.00
2023-05-09T04:57:51.023Z,711.00
2023-05-09T04:58:21.035Z,715.00
2023-05-09T04:58:51.041Z,720.00
2023-05-09T04:59:21.062Z,721.00
2023-05-09T04:59:51.109Z,721.00
2023-05-09T05:00:21.121Z,722.00
2023-05-09T05:00:51.120Z,721.00
2023-05-09T05:01:21.168Z,720.00
2023-05-09T05:01:51.246Z,716.00
2023-05-09T05:02:21.365Z,689.00
2023-05-09T05:02:51.303Z,686.00
2023-05-09T05:03:21.358Z,687.00
2023-05-09T05:03:51.395Z,684.00
2023-05-09T05:04:21.467Z,672.00
2023-05-09T05:04:52.917Z,660.00
2023-05-09T05:05:25.010Z,650.00
2023-05-09T05:05:51.658Z,642.00
2023-05-09T05:06:21.732Z,615.00
2023-05-09T05:06:51.732Z,603.00
2023-05-09T05:07:21.740Z,598.00
2023-05-09T05:08:21.889Z,596.00
2023-05-09T05:08:51.890Z,594.00
2023-05-09T05:09:21.901Z,593.00
2023-05-09T05:09:51.912Z,591.00
2023-05-09T05:10:21.939Z,590.00
2023-05-09T05:10:51.940Z,588.00
2023-05-09T05:11:21.942Z,586.00
2023-05-09T05:11:59.957Z,584.00
2023-05-09T05:12:22.118Z,580.00
2023-05-09T05:12:52.258Z,575.00
2023-05-09T05:13:22.340Z,572.00
2023-05-09T05:13:52.255Z,568.00
2023-05-09T05:14:22.360Z,565.00
2023-05-09T05:14:52.458Z,565.00
2023-05-09T05:15:22.531Z,563.00
2023-05-09T05:15:52.687Z,561.00
2023-05-09T05:16:22.727Z,558.00
2023-05-09T05:16:52.828Z,556.00
2023-05-09T05:17:22.804Z,554.00
2023-05-09T05:17:52.920Z,551.00
2023-05-09T05:18:22.887Z,549.00
2023-05-09T05:18:52.978Z,543.00
2023-05-09T05:19:23.063Z,535.00
2023-05-09T05:19:53.149Z,532.00
2023-05-09T05:20:23.229Z,528.00
2023-05-09T05:20:53.322Z,527.00
2023-05-09T05:21:23.314Z,527.00
2023-05-09T05:21:53.321Z,525.00
2023-05-09T05:22:23.339Z,523.00
2023-05-09T05:22:53.358Z,520.00
2023-05-09T05:23:23.360Z,520.00
2023-05-09T05:23:53.387Z,520.00
2023-05-09T05:24:23.392Z,518.00
2023-05-09T05:24:53.418Z,513.00
2023-05-09T05:25:23.414Z,510.00
2023-05-09T05:25:53.425Z,510.00
2023-05-09T05:26:23.507Z,511.00
2023-05-09T05:26:53.523Z,513.00
2023-05-09T05:27:23.529Z,512.00
2023-05-09T05:27:53.534Z,513.00
2023-05-09T05:28:23.540Z,513.00
2023-05-09T05:28:53.548Z,514.00
2023-05-09T05:29:23.543Z,514.00
2023-05-09T05:29:53.567Z,512.00
2023-05-09T05:30:23.556Z,509.00
2023-05-09T05:30:53.577Z,510.00
2023-05-09T05:31:23.601Z,508.00
2023-05-09T05:31:53.715Z,505.00
2023-05-09T05:32:23.805Z,506.00
2023-05-09T05:32:53.672Z,506.00
2023-05-09T05:33:53.764Z,508.00
2023-05-09T05:34:23.762Z,510.00
2023-05-09T05:34:53.773Z,509.00
2023-05-09T05:35:23.783Z,512.00
2023-05-09T05:35:53.805Z,514.00
2023-05-09T05:36:23.829Z,517.00
2023-05-09T05:36:53.831Z,519.00
2023-05-09T05:37:23.835Z,520.00
2023-05-09T05:37:53.843Z,519.00
2023-05-09T05:38:23.856Z,521.00
2023-05-09T05:38:53.865Z,519.00
2023-05-09T05:39:23.877Z,518.00
2023-05-09T05:39:53.876Z,519.00
2023-05-09T05:40:23.908Z,517.00
2023-05-09T05:40:53.915Z,519.00
2023-05-09T05:41:23.922Z,521.00
2023-05-09T05:41:53.928Z,522.00
2023-05-09T05:42:23.944Z,523.00
2023-05-09T05:42:53.946Z,522.00
2023-05-09T05:43:23.956Z,523.00
2023-05-09T05:43:54.603Z,525.00
2023-05-09T05:44:24.068Z,532.00
2023-05-09T05:44:54.091Z,537.00
2023-05-09T05:45:24.109Z,543.00
2023-05-09T05:45:54.138Z,552.00
2023-05-09T05:46:24.156Z,574.00
2023-05-09T05:46:54.170Z,581.00
2023-05-09T05:47:24.173Z,582.00
2023-05-09T05:47:54.502Z,587.00
2023-05-09T05:48:24.338Z,589.00
2023-05-09T05:49:24.412Z,596.00
2023-05-09T05:49:54.432Z,600.00
2023-05-09T05:50:24.434Z,604.00
2023-05-09T05:50:54.473Z,609.00
2023-05-09T05:51:24.460Z,611.00
2023-05-09T05:51:54.469Z,619.00
2023-05-09T05:52:24.479Z,680.00
2023-05-09T05:52:54.488Z,670.00
2023-05-09T05:53:24.511Z,669.00
2023-05-09T05:53:54.516Z,664.00
2023-05-09T05:54:24.543Z,662.00
2023-05-09T05:54:54.553Z,662.00
2023-05-09T05:55:24.569Z,663.00
2023-05-09T05:55:54.561Z,665.00
2023-05-09T05:56:24.577Z,665.00
2023-05-09T05:56:54.585Z,667.00
2023-05-09T05:57:24.585Z,667.00
2023-05-09T05:57:54.617Z,669.00
2023-05-09T05:58:24.635Z,670.00
2023-05-09T05:58:54.643Z,675.00
2023-05-09T05:59:24.670Z,677.00
2023-05-09T05:59:54.671Z,676.00
2023-05-09T06:00:24.680Z,673.00
2023-05-09T06:00:54.682Z,672.00
2023-05-09T06:01:24.707Z,669.00
2023-05-09T06:01:54.723Z,666.00
2023-05-09T06:02:54.963Z,669.00
2023-05-09T06:03:25.059Z,677.00
2023-05-09T06:03:55.049Z,676.00
2023-05-09T06:04:56.155Z,677.00
2023-05-09T06:05:25.084Z,677.00
2023-05-09T06:05:55.094Z,675.00
2023-05-09T06:06:25.119Z,671.00
2023-05-09T06:06:55.140Z,670.00
2023-05-09T06:07:25.163Z,668.00
2023-05-09T06:07:55.176Z,671.00
2023-05-09T06:08:25.201Z,670.00
2023-05-09T06:08:55.214Z,672.00
2023-05-09T06:09:25.218Z,672.00
2023-05-09T06:09:55.246Z,672.00
2023-05-09T06:10:25.258Z,673.00
2023-05-09T06:10:55.272Z,673.00
2023-05-09T06:11:25.373Z,673.00
2023-05-09T06:11:55.370Z,673.00
2023-05-09T06:12:27.344Z,674.00
2023-05-09T06:12:55.553Z,676.00
2023-05-09T06:13:25.614Z,681.00
2023-05-09T06:13:55.551Z,682.00
2023-05-09T06:14:25.636Z,681.00
2023-05-09T06:14:55.738Z,683.00
2023-05-09T06:15:25.811Z,684.00
2023-05-09T06:15:57.748Z,683.00
2023-05-09T06:16:25.992Z,683.00
2023-05-09T06:16:56.150Z,683.00
2023-05-09T06:17:26.144Z,683.00
2023-05-09T06:17:56.212Z,683.00
2023-05-09T06:18:26.226Z,686.00
2023-05-09T06:18:56.473Z,685.00
2023-05-09T06:19:26.317Z,686.00
2023-05-09T06:20:26.469Z,684.00
2023-05-09T06:20:56.548Z,685.00
2023-05-09T06:21:26.680Z,688.00
2023-05-09T06:21:56.669Z,691.00
2023-05-09T06:22:26.671Z,688.00
2023-05-09T06:22:56.727Z,681.00
2023-05-09T06:23:26.722Z,680.00